South San Francisco, California
Current Conditions -  °F | °C
As of 8:56 AM on Thursday 23 Oct 2014 (Local Time) from KSFO Reporting Station
Broken Clouds Broken Clouds  
Wind Chill: 67°   Ceiling: 18000
Heat Index: 67°   Visibility: 10mi
Dew Point: 61°   Wind: 0mph
Humidity: 81%   Direction: NA
Pressure: 30.07"   Gusts: NA
Location:  37.66°N, 122.41°W
Report Text: KSFO 231556Z 00000KT 10SM FEW009 SCT015 BKN180 19/16 A3007 RMK AO2 SLP182 T01940161
Loading
Personal Weather Stations






























Interactive Weather Map
Tropical Storm Tracking
New forecast layout! Learn more

10-Day Weather Forecast

Advertisements
Track Severe Weather on mobile